Time;durP1;ratioP1;P1;durP2;ratioP2;P2;SDS_P1;SDS_P2;PMS_P1;PMS_P2;Temp;Humidity;BMP_temperature;BMP_pressure;BME280_temperature;BME280_humidity;BME280_pressure;Samples;Min_cycle;Max_cycle;Signal;HPM_P1;HPM_P2
2023/05/15 00:01:54;;;;;;;5.75;2.92;;;22.30;66.40;;;;;;10498628;28;20416;-24
2023/05/15 00:06:56;;;;;;;3.83;2.65;;;22.30;66.30;;;;;;10496940;28;20428;-23
2023/05/15 00:11:59;;;;;;;4.32;2.83;;;22.20;66.90;;;;;;10510601;28;20083;-24
2023/05/15 00:17:01;;;;;;;4.47;2.90;;;22.20;66.40;;;;;;10517227;28;20040;-25
2023/05/15 00:22:03;;;;;;;;;;;22.10;66.90;;;;;;10496065;28;20048;-25
2023/05/15 00:27:06;;;;;;;3.80;2.47;;;22.00;65.60;;;;;;10490539;28;20008;-24
2023/05/15 00:32:08;;;;;;;4.88;2.90;;;22.00;67.40;;;;;;10489833;28;20094;-25
2023/05/15 00:37:10;;;;;;;4.35;2.58;;;22.00;67.90;;;;;;10502289;28;20048;-24
2023/05/15 00:42:15;;;;;;;3.33;2.47;;;21.90;67.20;;;;;;10487546;28;20070;-24
2023/05/15 00:47:18;;;;;;;3.85;2.42;;;22.00;68.10;;;;;;10498242;28;20044;-24
2023/05/15 00:52:20;;;;;;;3.00;2.15;;;21.90;66.90;;;;;;10493323;28;20079;-25
2023/05/15 00:57:26;;;;;;;;;;;21.90;66.60;;;;;;10493514;28;20122;-25
2023/05/15 01:02:28;;;;;;;3.13;2.05;;;21.90;67.30;;;;;;10475561;28;19936;-24
2023/05/15 01:07:33;;;;;;;3.67;2.50;;;21.80;67.80;;;;;;10483088;28;20052;-24
2023/05/15 01:12:38;;;;;;;2.80;2.03;;;21.80;66.80;;;;;;10500022;28;20141;-24
2023/05/15 01:17:40;;;;;;;2.92;2.10;;;21.80;67.80;;;;;;10494283;28;20663;-24
2023/05/15 01:22:51;;;;;;;3.00;2.20;;;21.70;67.20;;;;;;10487626;28;20386;-24
2023/05/15 01:27:56;;;;;;;4.20;2.20;;;21.70;66.60;;;;;;10494215;28;20076;-24
2023/05/15 01:33:06;;;;;;;3.08;2.13;;;21.70;66.70;;;;;;10494340;28;20048;-23
2023/05/15 01:38:18;;;;;;;4.43;2.65;;;21.60;66.60;;;;;;10512778;28;20052;-24
2023/05/15 01:43:23;;;;;;;;;;;21.60;69.10;;;;;;10493974;28;20064;-25
2023/05/15 01:48:27;;;;;;;3.28;1.98;;;21.60;67.70;;;;;;10482200;28;20349;-24
2023/05/15 01:53:31;;;;;;;3.17;2.08;;;21.40;67.10;;;;;;10485436;28;20044;-24
2023/05/15 01:58:37;;;;;;;2.92;2.00;;;21.20;67.10;;;;;;10491890;28;20056;-24
2023/05/15 02:03:41;;;;;;;3.45;2.42;;;21.30;68.20;;;;;;10490830;28;20131;-24
2023/05/15 02:08:43;;;;;;;2.40;1.80;;;21.40;68.70;;;;;;10490072;28;20056;-24
2023/05/15 02:13:47;;;;;;;3.38;2.08;;;21.40;68.40;;;;;;10486964;28;20083;-24
2023/05/15 02:18:51;;;;;;;2.42;2.05;;;21.40;66.80;;;;;;10484460;28;20139;-23
2023/05/15 02:23:53;;;;;;;7.60;1.92;;;21.50;67.40;;;;;;10486305;28;20461;-22
2023/05/15 02:29:06;;;;;;;3.78;2.03;;;21.40;67.20;;;;;;10492234;28;20064;-23
2023/05/15 02:34:17;;;;;;;3.03;2.05;;;21.40;67.90;;;;;;10487790;28;20088;-24
2023/05/15 02:39:22;;;;;;;2.42;1.65;;;21.40;66.10;;;;;;10480761;28;20132;-23
2023/05/15 02:44:26;;;;;;;3.83;1.90;;;21.40;69.00;;;;;;10488034;28;20053;-24
2023/05/15 02:49:28;;;;;;;3.88;1.95;;;21.30;67.30;;;;;;10484760;28;20072;-24
2023/05/15 02:54:30;;;;;;;2.75;1.98;;;21.30;68.10;;;;;;10498442;28;20053;-23
2023/05/15 03:15:30;;;;;;;2.47;1.73;;;21.50;67.10;;;;;;10511641;27;20113;-26
2023/05/15 03:20:32;;;;;;;12.25;7.85;;;20.70;67.70;;;;;;10521768;28;20478;-25
2023/05/15 03:25:33;;;;;;;3.22;2.92;;;18.30;76.50;;;;;;10526647;28;20634;-23
2023/05/15 03:30:37;;;;;;;12.77;8.55;;;18.50;87.20;;;;;;10520739;28;20487;-23
2023/05/15 03:35:39;;;;;;;7.05;5.07;;;16.50;91.20;;;;;;10513416;28;20169;-23
2023/05/15 03:40:40;;;;;;;8.60;7.60;;;15.60;99.90;;;;;;10526298;28;20052;-23
2023/05/15 03:45:44;;;;;;;10.40;8.53;;;15.60;97.70;;;;;;10525925;28;20040;-24
2023/05/15 03:50:46;;;;;;;12.60;9.05;;;15.70;99.90;;;;;;10525744;28;20482;-23
2023/05/15 03:55:48;;;;;;;4.72;3.38;;;16.20;96.20;;;;;;10537087;28;20135;-23
2023/05/15 04:00:51;;;;;;;16.33;11.27;;;16.40;99.50;;;;;;10522652;28;20132;-24
2023/05/15 04:05:53;;;;;;;4.07;3.20;;;14.90;99.90;;;;;;10520015;28;20447;-23
2023/05/15 04:10:55;;;;;;;16.03;12.80;;;17.00;95.90;;;;;;10521700;28;20768;-24
2023/05/15 04:15:58;;;;;;;4.50;3.78;;;17.00;91.90;;;;;;10522966;28;20493;-23
2023/05/15 04:21:00;;;;;;;12.48;10.45;;;17.50;95.40;;;;;;10529062;28;20114;-24
2023/05/15 04:26:02;;;;;;;19.90;14.75;;;18.40;78.20;;;;;;10489045;28;20105;-24
2023/05/15 04:31:05;;;;;;;14.63;12.38;;;17.80;86.70;;;;;;10495257;28;20102;-24
2023/05/15 04:36:08;;;;;;;5.82;4.82;;;18.00;86.20;;;;;;10477934;28;20036;-24
2023/05/15 04:41:10;;;;;;;2.03;1.83;;;19.60;78.80;;;;;;10489978;28;20422;-24
2023/05/15 04:46:13;;;;;;;6.57;4.65;;;20.00;76.40;;;;;;10496686;28;20044;-24
2023/05/15 04:51:15;;;;;;;2.10;1.88;;;19.90;73.90;;;;;;10490036;28;20215;-24
2023/05/15 04:56:17;;;;;;;2.33;2.13;;;20.20;72.50;;;;;;10500049;28;20128;-24
2023/05/15 05:01:20;;;;;;;3.10;2.20;;;19.40;80.40;;;;;;10501062;28;20607;-24
2023/05/15 05:06:23;;;;;;;2.42;2.17;;;20.10;76.20;;;;;;10498094;28;20447;-24
2023/05/15 05:11:25;;;;;;;2.75;2.03;;;20.20;73.70;;;;;;10508426;28;20799;-24
2023/05/15 05:16:28;;;;;;;2.10;1.90;;;20.50;71.90;;;;;;10491382;28;20076;-24
2023/05/15 05:21:30;;;;;;;2.45;1.50;;;20.50;72.10;;;;;;10483381;28;20076;-23
2023/05/15 05:26:32;;;;;;;1.70;1.60;;;20.90;70.00;;;;;;10481697;28;20481;-25
2023/05/15 05:31:35;;;;;;;1.75;1.60;;;20.90;70.30;;;;;;10485885;28;20076;-24
2023/05/15 05:36:37;;;;;;;2.05;1.65;;;21.10;68.90;;;;;;10484568;28;20133;-25
2023/05/15 05:41:39;;;;;;;2.75;1.73;;;21.10;68.60;;;;;;10485193;28;20139;-24
2023/05/15 05:46:44;;;;;;;1.98;1.55;;;21.10;68.80;;;;;;10486944;28;20052;-24
2023/05/15 05:51:46;;;;;;;2.30;2.10;;;21.10;68.90;;;;;;10467025;28;20143;-24
2023/05/15 05:56:47;;;;;;;2.38;1.90;;;21.10;68.70;;;;;;10502009;28;20048;-24
2023/05/15 06:01:51;;;;;;;3.33;1.95;;;21.20;68.30;;;;;;10486049;28;20052;-24
2023/05/15 06:06:53;;;;;;;1.83;1.73;;;21.20;68.20;;;;;;10488005;28;20715;-24
2023/05/15 06:11:55;;;;;;;2.58;1.77;;;21.30;68.20;;;;;;10489640;28;20052;-27
2023/05/15 06:16:58;;;;;;;;;;;21.30;68.00;;;;;;10496339;28;20094;-24
2023/05/15 06:22:00;;;;;;;3.63;1.98;;;21.30;67.90;;;;;;10488768;28;20007;-25
2023/05/15 06:27:02;;;;;;;2.50;2.03;;;21.30;67.90;;;;;;10485709;28;20079;-24
2023/05/15 06:32:06;;;;;;;10.73;6.20;;;21.10;68.70;;;;;;10488761;28;20106;-24
2023/05/15 06:37:08;;;;;;;4.32;2.13;;;20.90;66.80;;;;;;10462284;28;20094;-24
2023/05/15 06:42:09;;;;;;;4.80;2.53;;;21.00;69.50;;;;;;10488301;28;20048;-24
2023/05/15 06:47:13;;;;;;;3.63;3.17;;;21.20;68.00;;;;;;10478991;28;20140;-24
2023/05/15 06:52:14;;;;;;;2.97;2.20;;;21.30;67.60;;;;;;10488155;28;20116;-24
2023/05/15 06:57:16;;;;;;;3.95;2.85;;;21.20;68.50;;;;;;10491364;28;20132;-23
2023/05/15 07:02:19;;;;;;;7.75;3.53;;;20.60;69.60;;;;;;10493411;28;20072;-25
2023/05/15 07:07:21;;;;;;;18.08;13.82;;;20.70;69.70;;;;;;10490136;28;20045;-24
2023/05/15 07:12:23;;;;;;;4.82;4.35;;;19.60;70.90;;;;;;10499128;28;20147;-24
2023/05/15 07:17:26;;;;;;;3.65;2.70;;;20.30;72.70;;;;;;10492950;28;20094;-24
2023/05/15 07:22:28;;;;;;;6.68;5.10;;;20.10;75.50;;;;;;10493939;28;20068;-24
2023/05/15 07:27:31;;;;;;;12.82;8.07;;;20.10;72.90;;;;;;10492809;28;20095;-24
2023/05/15 07:32:34;;;;;;;6.38;4.82;;;19.30;80.70;;;;;;10498694;28;20044;-23
2023/05/15 07:37:36;;;;;;;8.82;6.10;;;18.90;88.50;;;;;;10487121;28;20660;-22
2023/05/15 07:42:38;;;;;;;6.57;4.25;;;18.60;90.00;;;;;;10481209;28;20463;-24
2023/05/15 07:47:46;;;;;;;10.48;7.85;;;19.60;81.10;;;;;;10490363;28;20672;-24
2023/05/15 07:52:47;;;;;;;11.70;8.48;;;17.60;94.70;;;;;;10488802;28;20052;-24
2023/05/15 07:57:49;;;;;;;7.30;5.43;;;18.70;91.00;;;;;;10504866;28;20048;-25
2023/05/15 08:02:52;;;;;;;39.10;21.45;;;18.30;92.60;;;;;;10501293;28;20512;-23
2023/05/15 08:07:55;;;;;;;28.83;16.60;;;17.50;95.30;;;;;;10501044;28;20064;-31
2023/05/15 08:12:56;;;;;;;40.42;22.38;;;18.00;92.80;;;;;;10504489;28;20111;-24
2023/05/15 08:17:59;;;;;;;24.97;13.87;;;16.50;99.90;;;;;;10511888;28;20041;-24
2023/05/15 08:23:01;;;;;;;14.75;8.75;;;17.30;96.80;;;;;;10493773;28;20072;-24
2023/05/15 08:28:04;;;;;;;29.40;17.77;;;16.70;99.90;;;;;;10497421;28;20079;-24
2023/05/15 08:33:08;;;;;;;16.85;10.00;;;17.70;95.20;;;;;;10512450;28;20084;-26
2023/05/15 08:38:09;;;;;;;18.48;9.98;;;16.90;99.30;;;;;;10502558;28;20049;-23
2023/05/15 08:43:15;;;;;;;23.10;13.83;;;16.90;99.10;;;;;;10492234;28;20139;-24
2023/05/15 08:48:19;;;;;;;20.85;13.35;;;16.80;99.10;;;;;;10488395;28;20131;-24
2023/05/15 08:53:22;;;;;;;24.88;14.90;;;15.90;99.90;;;;;;10502965;28;20142;-24
2023/05/15 08:58:27;;;;;;;25.35;16.15;;;17.80;95.00;;;;;;10504213;28;20052;-24
2023/05/15 09:03:30;;;;;;;29.58;16.80;;;16.10;99.90;;;;;;10493981;28;20126;-23
2023/05/15 09:08:33;;;;;;;14.98;8.07;;;16.20;99.90;;;;;;10482759;28;20079;-22
2023/05/15 09:13:35;;;;;;;11.57;6.63;;;17.40;97.10;;;;;;10488661;28;20060;-25
2023/05/15 09:18:39;;;;;;;8.65;6.38;;;17.90;95.20;;;;;;10492191;28;20044;-23
2023/05/15 09:23:41;;;;;;;8.02;5.32;;;17.70;96.90;;;;;;10487656;28;20072;-24
2023/05/15 09:28:43;;;;;;;25.47;14.83;;;18.60;91.50;;;;;;10478571;28;20051;-23
2023/05/15 09:33:46;;;;;;;16.10;11.38;;;16.70;99.90;;;;;;10483928;28;20506;-24
2023/05/15 09:38:48;;;;;;;14.90;9.70;;;16.20;99.90;;;;;;10480195;28;20101;-24
2023/05/15 09:43:50;;;;;;;13.17;6.80;;;15.90;99.90;;;;;;10512633;28;20051;-24
2023/05/15 09:48:56;;;;;;;13.70;5.50;;;16.80;97.90;;;;;;10496729;28;20090;-24
2023/05/15 09:53:58;;;;;;;10.93;5.53;;;16.90;98.00;;;;;;10489358;28;20481;-25
2023/05/15 09:59:00;;;;;;;11.63;4.75;;;16.10;99.90;;;;;;10493714;28;20135;-24
2023/05/15 10:04:05;;;;;;;6.23;4.10;;;15.60;99.90;;;;;;10492436;28;20094;-24
2023/05/15 10:09:08;;;;;;;9.00;3.90;;;15.90;99.90;;;;;;10479660;28;20141;-24
2023/05/15 10:14:11;;;;;;;6.63;3.60;;;16.10;99.90;;;;;;10495953;28;20100;-24
2023/05/15 10:19:15;;;;;;;8.27;3.53;;;17.10;96.50;;;;;;10491001;28;20869;-24
2023/05/15 10:24:20;;;;;;;5.32;3.10;;;16.10;99.90;;;;;;10490062;28;20139;-25
2023/05/15 10:29:24;;;;;;;6.60;3.55;;;18.70;91.70;;;;;;10514891;28;20102;-25
2023/05/15 10:34:28;;;;;;;5.97;3.63;;;16.80;99.90;;;;;;10482420;28;20059;-24
2023/05/15 10:39:30;;;;;;;14.88;5.90;;;18.20;94.30;;;;;;10481176;28;20110;-23
2023/05/15 10:44:32;;;;;;;9.45;3.17;;;16.70;99.20;;;;;;10482116;28;20482;-24
2023/05/15 10:49:35;;;;;;;12.00;3.83;;;17.30;97.30;;;;;;10485475;28;20063;-23
2023/05/15 10:54:37;;;;;;;8.80;3.30;;;15.60;99.90;;;;;;10494239;28;20049;-24
2023/05/15 10:59:40;;;;;;;10.23;2.95;;;17.40;97.10;;;;;;10499392;28;20076;-24
2023/05/15 11:04:44;;;;;;;9.35;3.15;;;17.40;91.90;;;;;;10483039;28;20068;-23
2023/05/15 11:09:46;;;;;;;23.08;3.75;;;18.70;91.60;;;;;;10487531;28;20078;-25
2023/05/15 11:15:19;;;;;;;6.97;2.67;;;15.60;99.90;;;;;;10485966;28;20075;-23
2023/05/15 11:20:32;;;;;;;5.93;3.00;;;15.30;99.90;;;;;;10482853;28;20040;-23
2023/05/15 11:25:34;;;;;;;;;;;16.80;96.20;;;;;;10479435;28;20041;-24
2023/05/15 11:30:40;;;;;;;13.63;4.25;;;16.90;98.80;;;;;;10484059;28;19928;-25
2023/05/15 11:35:45;;;;;;;17.33;2.58;;;17.30;98.60;;;;;;10492819;28;20861;-25
2023/05/15 11:40:48;;;;;;;9.50;2.95;;;16.30;97.20;;;;;;10495097;28;20045;-24
2023/05/15 11:45:54;;;;;;;12.50;2.95;;;17.10;99.30;;;;;;10495781;28;20049;-25
2023/05/15 11:50:57;;;;;;;11.95;2.78;;;16.20;99.90;;;;;;10495674;28;20049;-25
2023/05/15 11:55:59;;;;;;;11.25;3.40;;;15.40;99.90;;;;;;10495006;28;20092;-24
2023/05/15 12:01:01;;;;;;;16.07;2.60;;;15.70;99.90;;;;;;10494627;28;20469;-23
2023/05/15 12:06:05;;;;;;;12.23;3.00;;;14.80;99.90;;;;;;10489323;28;20094;-23
2023/05/15 12:11:07;;;;;;;10.50;2.30;;;16.60;99.90;;;;;;10486269;28;20052;-23
2023/05/15 12:16:08;;;;;;;8.53;2.23;;;15.80;99.90;;;;;;10490098;28;20048;-23
2023/05/15 12:21:11;;;;;;;11.23;2.13;;;16.00;99.60;;;;;;10486224;28;21010;-24
2023/05/15 12:26:13;;;;;;;11.23;2.40;;;16.30;98.00;;;;;;10493550;28;20079;-23
2023/05/15 12:31:17;;;;;;;20.03;2.90;;;16.80;99.30;;;;;;10494894;28;20051;-22
2023/05/15 12:36:21;;;;;;;10.15;2.53;;;15.60;99.90;;;;;;10492106;28;20506;-24
2023/05/15 12:41:27;;;;;;;10.55;2.80;;;16.00;99.90;;;;;;10502650;28;20393;-24
2023/05/15 12:46:30;;;;;;;9.73;2.63;;;17.00;99.90;;;;;;10500597;28;20137;-24
2023/05/15 12:51:33;;;;;;;11.32;2.40;;;15.80;99.90;;;;;;10494105;28;20071;-24
2023/05/15 12:56:35;;;;;;;8.10;2.10;;;15.10;99.90;;;;;;10500090;28;20043;-23
2023/05/15 13:01:37;;;;;;;5.33;2.30;;;15.60;99.90;;;;;;10494918;28;20489;-23
2023/05/15 13:06:41;;;;;;;6.80;1.83;;;15.50;99.90;;;;;;10484442;28;20461;-24
2023/05/15 13:11:44;;;;;;;8.35;2.10;;;14.70;99.90;;;;;;10495097;28;20088;-24
2023/05/15 13:16:46;;;;;;;6.78;1.88;;;17.00;97.70;;;;;;10487003;28;20052;-24
2023/05/15 13:21:50;;;;;;;9.20;2.20;;;15.00;99.90;;;;;;10494572;28;20069;-24
2023/05/15 13:26:52;;;;;;;8.35;2.28;;;15.00;99.90;;;;;;10494198;28;20074;-25
2023/05/15 13:31:54;;;;;;;9.77;2.40;;;16.40;99.90;;;;;;10488459;28;20436;-25
2023/05/15 13:36:57;;;;;;;10.47;4.47;;;15.80;99.90;;;;;;10494326;28;20603;-24
2023/05/15 13:41:59;;;;;;;7.35;2.17;;;14.90;99.90;;;;;;10492809;28;20059;-24
2023/05/15 13:47:03;;;;;;;8.20;2.20;;;15.30;99.90;;;;;;10490874;28;20045;-25
2023/05/15 13:52:06;;;;;;;9.15;2.30;;;15.90;99.90;;;;;;10482782;28;20479;-25
2023/05/15 13:57:08;;;;;;;4.82;1.70;;;16.90;99.20;;;;;;10486448;28;20110;-23
2023/05/15 14:02:10;;;;;;;9.53;2.73;;;15.90;99.90;;;;;;10488150;28;20048;-24
2023/05/15 14:07:13;;;;;;;14.25;2.65;;;14.40;99.90;;;;;;10495100;28;20639;-24
2023/05/15 14:12:15;;;;;;;12.20;2.40;;;15.90;99.90;;;;;;10480509;28;20528;-24
2023/05/15 14:17:18;;;;;;;6.53;2.13;;;14.80;99.90;;;;;;10483793;28;20068;-24
2023/05/15 14:22:23;;;;;;;15.77;2.45;;;15.70;99.90;;;;;;10490996;28;20048;-25
2023/05/15 14:27:25;;;;;;;15.30;3.67;;;14.90;99.90;;;;;;10485552;28;20044;-24
2023/05/15 14:32:27;;;;;;;18.97;3.53;;;14.50;99.90;;;;;;10487570;28;20127;-24
2023/05/15 14:37:30;;;;;;;12.37;2.87;;;14.70;99.90;;;;;;10462918;28;20477;-24
2023/05/15 14:42:32;;;;;;;14.48;3.35;;;15.00;99.90;;;;;;10479769;28;20051;-23
2023/05/15 14:47:34;;;;;;;13.77;2.93;;;15.50;99.90;;;;;;10470649;28;20045;-24
2023/05/15 14:52:37;;;;;;;9.88;2.25;;;16.60;99.90;;;;;;10486209;28;20079;-24
2023/05/15 14:57:39;;;;;;;6.60;2.35;;;17.90;91.80;;;;;;10486896;28;20424;-24
2023/05/15 15:02:41;;;;;;;13.68;2.70;;;18.70;88.90;;;;;;10485961;28;20140;-23
2023/05/15 15:08:01;;;;;;;22.50;3.05;;;17.60;93.90;;;;;;10492864;28;20072;-24
2023/05/15 15:13:03;;;;;;;17.48;3.05;;;18.20;91.60;;;;;;10496230;28;20048;-24
2023/05/15 15:18:05;;;;;;;;;;;18.00;92.80;;;;;;10475136;28;20075;-23
2023/05/15 15:23:09;;;;;;;18.20;2.90;;;16.90;95.00;;;;;;10496741;28;19967;-22
2023/05/15 15:28:10;;;;;;;11.88;3.00;;;16.90;98.80;;;;;;10486139;28;20489;-24
2023/05/15 15:33:12;;;;;;;20.02;2.83;;;17.60;93.70;;;;;;10470596;28;20563;-24
2023/05/15 15:38:15;;;;;;;10.80;2.58;;;17.30;97.40;;;;;;10493386;28;20047;-25
2023/05/15 15:43:17;;;;;;;10.88;2.83;;;17.90;90.10;;;;;;10492613;28;20048;-23
2023/05/15 15:48:19;;;;;;;18.17;3.15;;;17.50;95.50;;;;;;10483130;28;20072;-24
2023/05/15 15:53:23;;;;;;;8.35;1.48;;;17.60;92.10;;;;;;10482884;28;20513;-24
2023/05/15 15:58:25;;;;;;;8.43;2.30;;;18.20;92.10;;;;;;10498135;28;20489;-24
2023/05/15 16:03:27;;;;;;;4.73;1.80;;;17.80;95.00;;;;;;10479579;28;20040;-24
2023/05/15 16:08:30;;;;;;;14.63;2.10;;;18.30;88.30;;;;;;10477813;28;20506;-24
2023/05/15 16:13:32;;;;;;;12.95;2.60;;;18.10;92.30;;;;;;10484601;28;20550;-24
2023/05/15 16:18:34;;;;;;;16.30;2.55;;;17.90;84.00;;;;;;10490989;28;20087;-23
2023/05/15 16:23:39;;;;;;;16.95;2.85;;;18.50;82.00;;;;;;10487676;28;20037;-24
2023/05/15 16:28:41;;;;;;;8.05;1.95;;;16.90;89.20;;;;;;10493884;28;20060;-23
2023/05/15 16:33:43;;;;;;;13.43;2.33;;;17.80;81.90;;;;;;10498166;28;20082;-26
2023/05/15 16:38:46;;;;;;;15.43;2.95;;;18.00;91.10;;;;;;10490649;28;20055;-24
2023/05/15 16:43:49;;;;;;;8.98;2.25;;;17.60;94.20;;;;;;10477230;28;20584;-24
2023/05/15 16:48:51;;;;;;;11.60;2.30;;;17.10;96.80;;;;;;10497563;28;20045;-24
2023/05/15 16:53:55;;;;;;;7.80;2.00;;;16.70;94.10;;;;;;10490819;28;20115;-24
2023/05/15 16:58:57;;;;;;;11.30;3.38;;;18.10;91.10;;;;;;10497059;28;20059;-24
2023/05/15 17:03:58;;;;;;;24.20;3.50;;;16.80;86.90;;;;;;10499982;28;20336;-24
2023/05/15 17:09:02;;;;;;;10.57;2.60;;;15.90;96.10;;;;;;10496206;28;20131;-24
2023/05/15 17:14:04;;;;;;;9.82;1.98;;;14.40;95.10;;;;;;10504879;28;20088;-25
2023/05/15 17:19:05;;;;;;;12.20;2.33;;;15.90;98.60;;;;;;10495731;28;20072;-24
2023/05/15 17:24:09;;;;;;;13.93;2.60;;;15.40;99.90;;;;;;10492077;28;20124;-25
2023/05/15 17:29:10;;;;;;;13.57;2.40;;;15.60;98.80;;;;;;10491503;28;20057;-24
2023/05/15 17:34:12;;;;;;;13.93;2.63;;;14.40;98.90;;;;;;10492100;28;20051;-23
2023/05/15 17:39:16;;;;;;;14.27;2.83;;;15.20;95.60;;;;;;10488667;28;20495;-24
2023/05/15 17:44:17;;;;;;;11.32;2.60;;;15.80;99.90;;;;;;10497253;28;20489;-25
2023/05/15 17:49:19;;;;;;;8.30;2.30;;;15.70;97.30;;;;;;10480531;28;20079;-25
2023/05/15 17:54:22;;;;;;;6.20;1.83;;;16.00;99.90;;;;;;10486948;28;20507;-25
2023/05/15 17:59:24;;;;;;;24.40;3.40;;;16.60;98.40;;;;;;10499144;28;20084;-25
2023/05/15 18:04:26;;;;;;;23.20;2.80;;;16.30;87.80;;;;;;10480603;28;20045;-25
2023/05/15 18:09:29;;;;;;;19.00;2.83;;;16.30;94.90;;;;;;10495868;28;20408;-25
2023/05/15 18:14:31;;;;;;;18.83;2.88;;;15.40;83.50;;;;;;10482944;28;20049;-24
2023/05/15 18:19:33;;;;;;;19.00;3.03;;;17.10;87.90;;;;;;10486121;28;20552;-24
2023/05/15 18:24:36;;;;;;;14.03;2.23;;;15.50;92.40;;;;;;10483973;28;20076;-25
2023/05/15 18:29:38;;;;;;;17.38;3.88;;;15.80;87.10;;;;;;10486188;28;20520;-25
2023/05/15 18:34:40;;;;;;;7.63;1.80;;;17.20;89.90;;;;;;10493952;28;20072;-24
2023/05/15 18:39:43;;;;;;;27.75;4.13;;;17.60;93.60;;;;;;10480379;28;20472;-25
2023/05/15 18:44:45;;;;;;;15.25;3.47;;;15.10;84.20;;;;;;10497631;28;20049;-25
2023/05/15 18:49:47;;;;;;;17.43;2.43;;;15.80;88.00;;;;;;10474758;28;20072;-23
2023/05/15 18:54:51;;;;;;;19.63;2.60;;;16.00;99.20;;;;;;10477991;28;20110;-23
2023/05/15 18:59:53;;;;;;;14.88;2.78;;;16.20;91.60;;;;;;10488968;28;20052;-24
2023/05/15 19:04:55;;;;;;;15.18;2.33;;;15.30;90.10;;;;;;10483066;28;20446;-24
2023/05/15 19:09:58;;;;;;;13.27;2.33;;;16.60;96.10;;;;;;10483182;28;20040;-24
2023/05/15 19:15:01;;;;;;;11.32;2.38;;;16.40;97.80;;;;;;10493885;28;20060;-22
2023/05/15 19:20:04;;;;;;;15.20;2.20;;;16.40;90.00;;;;;;10483653;28;20084;-22
2023/05/15 19:25:08;;;;;;;9.57;1.92;;;16.60;75.70;;;;;;10485764;28;20049;-24
2023/05/15 19:30:10;;;;;;;21.35;2.40;;;15.70;88.90;;;;;;10485719;28;20049;-25
2023/05/15 19:35:12;;;;;;;21.65;2.72;;;16.70;75.00;;;;;;10483463;28;20059;-24
2023/05/15 19:40:16;;;;;;;11.77;2.60;;;15.50;96.90;;;;;;10487279;28;20598;-24
2023/05/15 19:45:19;;;;;;;6.97;2.50;;;16.40;97.30;;;;;;10496278;28;20048;-25
2023/05/15 19:50:21;;;;;;;21.20;3.85;;;17.50;81.30;;;;;;10486028;28;20492;-24
2023/05/15 19:55:24;;;;;;;9.10;2.17;;;15.40;96.50;;;;;;10485372;28;20400;-23
2023/05/15 20:00:26;;;;;;;8.68;2.40;;;16.50;93.30;;;;;;10496915;28;20516;-25
2023/05/15 20:05:28;;;;;;;13.70;1.90;;;16.80;93.30;;;;;;10494713;28;20082;-28
2023/05/15 20:10:31;;;;;;;11.57;2.25;;;16.10;92.20;;;;;;10493607;28;20044;-25
2023/05/15 20:15:34;;;;;;;14.77;2.63;;;16.80;79.80;;;;;;10498015;28;20140;-25
2023/05/15 20:20:35;;;;;;;11.93;1.95;;;15.30;90.50;;;;;;10497568;28;20048;-25
2023/05/15 20:25:39;;;;;;;14.27;2.73;;;16.10;82.60;;;;;;10494974;28;20068;-25
2023/05/15 20:30:40;;;;;;;20.08;3.10;;;16.50;78.10;;;;;;10500256;28;20466;-25
2023/05/15 20:35:44;;;;;;;9.73;2.23;;;15.90;90.10;;;;;;10498229;28;20052;-25
2023/05/15 20:40:47;;;;;;;14.57;2.45;;;16.30;94.40;;;;;;10500304;28;20562;-25
2023/05/15 20:45:50;;;;;;;23.80;2.33;;;17.30;74.20;;;;;;10491238;28;20048;-25
2023/05/15 20:50:52;;;;;;;9.38;2.50;;;16.90;79.90;;;;;;10505531;28;20052;-25
2023/05/15 20:55:56;;;;;;;12.98;4.25;;;17.40;91.00;;;;;;10485069;28;20052;-25
2023/05/15 21:01:00;;;;;;;10.25;2.38;;;16.70;87.80;;;;;;10494735;28;20099;-24
2023/05/15 21:06:02;;;;;;;10.10;2.90;;;18.10;87.80;;;;;;10483185;28;20052;-24
2023/05/15 21:11:06;;;;;;;13.30;1.92;;;15.80;95.50;;;;;;10500881;28;20537;-24
2023/05/15 21:16:08;;;;;;;7.03;1.77;;;15.80;96.40;;;;;;10494516;28;20095;-26
2023/05/15 21:21:10;;;;;;;7.20;2.20;;;16.40;93.50;;;;;;10487072;28;20098;-24
2023/05/15 21:26:13;;;;;;;6.93;2.60;;;17.20;92.20;;;;;;10477800;28;20084;-25
2023/05/15 21:31:15;;;;;;;10.15;2.58;;;18.10;86.50;;;;;;10467357;28;20584;-23
2023/05/15 21:36:17;;;;;;;6.95;2.28;;;17.30;87.90;;;;;;10472044;28;20303;-24
2023/05/15 21:41:20;;;;;;;10.15;2.78;;;17.70;90.50;;;;;;10471210;28;20059;-25
2023/05/15 21:46:22;;;;;;;9.73;2.08;;;18.10;87.80;;;;;;10457902;28;20405;-25
2023/05/15 21:51:24;;;;;;;10.95;2.22;;;17.50;83.10;;;;;;10483738;28;20045;-23
2023/05/15 21:56:27;;;;;;;12.30;2.45;;;17.60;87.40;;;;;;10482389;28;20445;-24
2023/05/15 22:01:29;;;;;;;4.68;1.90;;;16.20;85.00;;;;;;10468016;28;20068;-24
2023/05/15 22:06:31;;;;;;;10.77;2.63;;;17.80;86.00;;;;;;10485835;28;20044;-24
2023/05/15 22:11:34;;;;;;;7.47;2.92;;;17.60;86.10;;;;;;10466112;28;20060;-24
2023/05/15 22:16:36;;;;;;;12.73;2.75;;;17.00;85.80;;;;;;10472422;28;20122;-26
2023/05/15 22:21:38;;;;;;;9.13;2.63;;;16.40;92.90;;;;;;10477699;28;20052;-26
2023/05/15 22:26:41;;;;;;;12.53;2.67;;;16.80;92.40;;;;;;10466431;28;21093;-25
2023/05/15 22:31:43;;;;;;;7.72;2.92;;;16.60;85.10;;;;;;10473102;28;20478;-25
2023/05/15 22:36:45;;;;;;;17.35;7.90;;;17.30;90.70;;;;;;10465338;28;20049;-25
2023/05/15 22:41:49;;;;;;;5.90;2.70;;;18.40;81.80;;;;;;10466967;28;20147;-26
2023/05/15 22:46:51;;;;;;;11.23;2.78;;;18.00;82.40;;;;;;10467227;28;20471;-24
2023/05/15 22:51:54;;;;;;;;;;;17.60;89.10;;;;;;10471701;28;20068;-24
2023/05/15 22:56:57;;;;;;;11.23;2.47;;;17.10;82.30;;;;;;10464783;28;19971;-23
2023/05/15 23:01:59;;;;;;;10.73;2.78;;;17.20;85.60;;;;;;10468106;28;20075;-22
2023/05/15 23:07:00;;;;;;;11.10;2.72;;;17.20;87.60;;;;;;10465676;28;20139;-23
2023/05/15 23:12:04;;;;;;;9.33;2.53;;;17.20;80.20;;;;;;10466012;28;20585;-23
2023/05/15 23:17:06;;;;;;;11.63;2.53;;;18.50;78.60;;;;;;10466103;28;20052;-24
2023/05/15 23:22:08;;;;;;;9.93;3.30;;;17.40;84.40;;;;;;10463415;28;20072;-24
2023/05/15 23:27:11;;;;;;;7.70;3.83;;;18.60;77.90;;;;;;10454528;28;20152;-23
2023/05/15 23:32:13;;;;;;;10.65;3.25;;;18.90;75.60;;;;;;10473132;28;20071;-24
2023/05/15 23:37:15;;;;;;;9.70;3.88;;;17.60;75.30;;;;;;10481612;28;20048;-23
2023/05/15 23:42:18;;;;;;;;;;;18.00;82.90;;;;;;10471492;28;20045;-24
2023/05/15 23:47:20;;;;;;;12.82;2.50;;;18.10;78.00;;;;;;10472197;28;20376;-23
2023/05/15 23:52:22;;;;;;;7.10;3.70;;;18.10;75.80;;;;;;10475274;28;20044;-24
2023/05/15 23:57:25;;;;;;;7.88;2.92;;;17.90;76.30;;;;;;10469305;28;20101;-21
